^^
Grace C. Lehan Memorial Weather Station Historical Data
Daily Summary for January 9, 2021 Units:  Both    English   Metric
Daily Weekly Monthly Yearly
  High: Low: Average:
Temperature: 74.5 °F /  23.6 °C 66 °F /  18.9 °C 72.3 °F /  22.4 °C
Dew Point: 71.4 °F /  21.9 °C 64.5 °F /  18.1 °C 70 °F /  21.1 °C
Humidity: 95% 89% 93%
Wind Speed: 0.3mph /  0.5km/h - 0mph /  0km/h
Wind Gust: 4mph /  6.4km/h - -
Wind- - SSW
Pressure: 29.77 in /  1008 hPa 29.68 in /  1005 hPa -
Precipitation: 0.02 in /  0.51 mm    
 
 
Tabular Data for January 9, 2021
Time Temperature Dew Point Pressure Wind Wind Speed Wind Gust Humidity Rainfall Rate (Hourly) solar
00:00 74.2 °F /  23.4 °C 70.8 °F /  21.6 °C 29.77in /  1008hPa Calm   2mph /  3.2km/h 89% 0.00in /  0mm 0 W/m2
00:09 74.2 °F /  23.4 °C 70.8 °F /  21.6 °C 29.77in /  1008hPa South 0.1mph /  0.2km/h 2mph /  3.2km/h 89% 0.00in /  0mm 0 W/m2
00:14 74.2 °F /  23.4 °C 70.8 °F /  21.6 °C 29.76in /  1007.7hPa Calm   2mph /  3.2km/h 89% 0.00in /  0mm 0 W/m2
00:19 74.3 °F /  23.5 °C 70.8 °F /  21.6 °C 29.76in /  1007.7hPa Calm   2mph /  3.2km/h 89% 0.00in /  0mm 0 W/m2
00:24 74.3 °F /  23.5 °C 70.8 °F /  21.6 °C 29.76in /  1007.7hPa Calm   2mph /  3.2km/h 89% 0.00in /  0mm 0 W/m2
00:29 74.3 °F /  23.5 °C 70.9 °F /  21.6 °C 29.76in /  1007.7hPa Calm   2mph /  3.2km/h 89.2% 0.00in /  0mm 0 W/m2
00:34 74.3 °F /  23.5 °C 71.1 °F /  21.7 °C 29.76in /  1007.7hPa Calm   2mph /  3.2km/h 90% 0.00in /  0mm 0 W/m2
00:39 74.2 °F /  23.4 °C 71.1 °F /  21.7 °C 29.76in /  1007.7hPa Calm     90% 0.00in /  0mm 0 W/m2
00:44 74.2 °F /  23.4 °C 71.1 °F /  21.7 °C 29.76in /  1007.7hPa Calm     90% 0.00in /  0mm 0 W/m2
00:49 74.2 °F /  23.4 °C 71.1 °F /  21.7 °C 29.75in /  1007.3hPa Calm     90% 0.00in /  0mm 0 W/m2
00:54 74.3 °F /  23.5 °C 71.2 °F /  21.8 °C 29.75in /  1007.3hPa Calm     90% 0.00in /  0mm 0 W/m2
00:59 74.3 °F /  23.5 °C 71.2 °F /  21.8 °C 29.75in /  1007.3hPa South 0.1mph /  0.2km/h 2mph /  3.2km/h 90% 0.00in /  0mm 0 W/m2
01:04 74.3 °F /  23.5 °C 71.2 °F /  21.8 °C 29.75in /  1007.3hPa Calm   2mph /  3.2km/h 90% 0.00in /  0mm 0 W/m2
01:09 74.4 °F /  23.6 °C 71.2 °F /  21.8 °C 29.75in /  1007.3hPa Calm     90% 0.00in /  0mm 0 W/m2
01:14 74.4 °F /  23.6 °C 71.3 °F /  21.8 °C 29.75in /  1007.3hPa Calm     90% 0.00in /  0mm 0 W/m2
01:19 74.4 °F /  23.6 °C 71.3 °F /  21.8 °C 29.75in /  1007.3hPa SSW 0.1mph /  0.2km/h 2mph /  3.2km/h 90% 0.00in /  0mm 0 W/m2
01:24 74.5 °F /  23.6 °C 71.2 °F /  21.8 °C 29.75in /  1007.3hPa Calm   2mph /  3.2km/h 89.5% 0.00in /  0mm 0 W/m2
01:29 74.5 °F /  23.6 °C 71.1 °F /  21.7 °C 29.75in /  1007.3hPa SSW 0.1mph /  0.2km/h 2mph /  3.2km/h 89.1% 0.00in /  0mm 0 W/m2
01:34 74.5 °F /  23.6 °C 71.4 °F /  21.9 °C 29.75in /  1007.3hPa SSW 0.1mph /  0.2km/h 2mph /  3.2km/h 90% 0.00in /  0mm 0 W/m2
01:39 74.5 °F /  23.6 °C 71.4 °F /  21.9 °C 29.75in /  1007.3hPa SSW 0.1mph /  0.2km/h 2mph /  3.2km/h 90% 0.00in /  0mm 0 W/m2
01:44 74.5 °F /  23.6 °C 71.4 °F /  21.9 °C 29.75in /  1007.3hPa SSW 0.2mph /  0.3km/h 3mph /  4.8km/h 90% 0.00in /  0mm 0 W/m2
01:49 74.5 °F /  23.6 °C 71.4 °F /  21.9 °C 29.75in /  1007.3hPa Calm   3mph /  4.8km/h 90% 0.00in /  0mm 0 W/m2
01:54 74.5 °F /  23.6 °C 71.1 °F /  21.7 °C 29.75in /  1007.3hPa Calm   3mph /  4.8km/h 89.2% 0.00in /  0mm 0 W/m2
01:59 74.4 °F /  23.6 °C 71 °F /  21.7 °C 29.75in /  1007.3hPa Calm   3mph /  4.8km/h 89% 0.00in /  0mm 0 W/m2
02:04 74.4 °F /  23.6 °C 71.2 °F /  21.8 °C 29.75in /  1007.3hPa Calm   3mph /  4.8km/h 89.8% 0.00in /  0mm 0 W/m2
02:09 74.4 °F /  23.6 °C 71.3 °F /  21.8 °C 29.75in /  1007.3hPa Calm     90% 0.00in /  0mm 0 W/m2
02:14 74.4 °F /  23.6 °C 71.3 °F /  21.8 °C 29.75in /  1007.3hPa Calm     90% 0.00in /  0mm 0 W/m2
02:19 74.4 °F /  23.6 °C 71.3 °F /  21.8 °C 29.75in /  1007.3hPa Calm     90% 0.00in /  0mm 0 W/m2
02:24 74.4 °F /  23.6 °C 71.3 °F /  21.8 °C 29.74in /  1007hPa Calm     90% 0.00in /  0mm 0 W/m2
02:29 74.4 °F /  23.6 °C 71 °F /  21.7 °C 29.74in /  1007hPa Calm     89.1% 0.00in /  0mm 0 W/m2
02:34 74.4 °F /  23.6 °C 70.9 °F /  21.6 °C 29.74in /  1007hPa Calm     89% 0.00in /  0mm 0 W/m2
02:39 74.4 °F /  23.6 °C 70.9 °F /  21.6 °C 29.73in /  1006.7hPa Calm     89% 0.00in /  0mm 0 W/m2
02:44 74.4 °F /  23.6 °C 70.9 °F /  21.6 °C 29.73in /  1006.7hPa Calm     89% 0.00in /  0mm 0 W/m2
02:49 74.4 °F /  23.6 °C 70.9 °F /  21.6 °C 29.72in /  1006.3hPa Calm     89% 0.00in /  0mm 0 W/m2
02:54 74.4 °F /  23.6 °C 70.9 °F /  21.6 °C 29.72in /  1006.3hPa Calm     89% 0.00in /  0mm 0 W/m2
02:59 74.4 °F /  23.6 °C 70.9 °F /  21.6 °C 29.72in /  1006.3hPa Calm     89% 0.00in /  0mm 0 W/m2
03:04 74.4 °F /  23.6 °C 70.9 °F /  21.6 °C 29.72in /  1006.3hPa Calm     89% 0.00in /  0mm 0 W/m2
03:09 74.4 °F /  23.6 °C 70.9 °F /  21.6 °C 29.73in /  1006.7hPa Calm     89% 0.00in /  0mm 0 W/m2
03:14 74.4 °F /  23.6 °C 71.2 °F /  21.8 °C 29.73in /  1006.7hPa Calm     89.9% 0.00in /  0mm 0 W/m2
03:19 74.4 °F /  23.6 °C 71.3 °F /  21.8 °C 29.72in /  1006.3hPa Calm     90% 0.00in /  0mm 0 W/m2
03:24 74.3 °F /  23.5 °C 71.2 °F /  21.8 °C 29.72in /  1006.3hPa Calm     90% 0.00in /  0mm 0 W/m2
03:29 74.3 °F /  23.5 °C 71.2 °F /  21.8 °C 29.72in /  1006.3hPa Calm     90% 0.00in /  0mm 0 W/m2
03:34 74.2 °F /  23.4 °C 71.1 °F /  21.7 °C 29.72in /  1006.3hPa Calm     90% 0.00in /  0mm 0 W/m2
03:39 74.2 °F /  23.4 °C 71 °F /  21.7 °C 29.72in /  1006.3hPa Calm     90% 0.00in /  0mm 0 W/m2
03:44 74.1 °F /  23.4 °C 70.9 °F /  21.6 °C 29.72in /  1006.3hPa Calm     90% 0.00in /  0mm 0 W/m2
03:49 73.8 °F /  23.2 °C 70.3 °F /  21.3 °C 29.71in /  1006hPa Calm     89.1% 0.00in /  0mm 0 W/m2
03:54 73.5 °F /  23.1 °C 70 °F /  21.1 °C 29.71in /  1006hPa Calm     89% 0.00in /  0mm 0 W/m2
03:59 73.3 °F /  22.9 °C 69.8 °F /  21 °C 29.71in /  1006hPa Calm     89% 0.00in /  0mm 0 W/m2
04:00 73.1 °F /  22.8 °C 69.7 °F /  20.9 °C 29.71in /  1006hPa Calm     89% 0.00in /  0mm 0 W/m2
04:09 72.9 °F /  22.7 °C 69.8 °F /  21 °C 29.72in /  1006.3hPa Calm     89.9% 0.00in /  0mm 0 W/m2
04:14 72.8 °F /  22.7 °C 69.7 °F /  20.9 °C 29.72in /  1006.3hPa Calm     90% 0.00in /  0mm 0 W/m2
04:19 72.8 °F /  22.7 °C 69.9 °F /  21.1 °C 29.72in /  1006.3hPa Calm     90.6% 0.00in /  0mm 0 W/m2
04:24 72.7 °F /  22.6 °C 69.9 °F /  21.1 °C 29.72in /  1006.3hPa SSW 0.3mph /  0.5km/h 4mph /  6.4km/h 91% 0.00in /  0mm 0 W/m2
04:29 72.7 °F /  22.6 °C 69.9 °F /  21.1 °C 29.72in /  1006.3hPa SSW 0.1mph /  0.2km/h 4mph /  6.4km/h 91% 0.00in /  0mm 0 W/m2
04:34 72.7 °F /  22.6 °C 70.3 °F /  21.3 °C 29.72in /  1006.3hPa Calm   4mph /  6.4km/h 92% 0.00in /  0mm 0 W/m2
04:39 72.6 °F /  22.6 °C 70.2 °F /  21.2 °C 29.72in /  1006.3hPa Calm     92% 0.00in /  0mm 0 W/m2
04:44 72.6 °F /  22.6 °C 70.2 °F /  21.2 °C 29.73in /  1006.7hPa Calm     92% 0.00in /  0mm 0 W/m2
04:49 72.5 °F /  22.5 °C 70.1 °F /  21.2 °C 29.73in /  1006.7hPa Calm     92% 0.00in /  0mm 0 W/m2
04:54 72.4 °F /  22.4 °C 70 °F /  21.1 °C 29.73in /  1006.7hPa Calm     92% 0.00in /  0mm 0 W/m2
04:59 72.4 °F /  22.4 °C 69.9 °F /  21.1 °C 29.73in /  1006.7hPa Calm     92% 0.00in /  0mm 0 W/m2
05:04 72.4 °F /  22.4 °C 69.9 °F /  21.1 °C 29.73in /  1006.7hPa Calm     92% 0.00in /  0mm 0 W/m2
05:09 72.3 °F /  22.4 °C 69.8 °F /  21 °C 29.73in /  1006.7hPa Calm     92% 0.00in /  0mm 0 W/m2
05:14 72.3 °F /  22.4 °C 70.2 °F /  21.2 °C 29.73in /  1006.7hPa Calm     93% 0.00in /  0mm 0 W/m2
05:19 72.3 °F /  22.4 °C 70.2 °F /  21.2 °C 29.73in /  1006.7hPa Calm     93% 0.00in /  0mm 0 W/m2
05:24 72.3 °F /  22.4 °C 70.2 °F /  21.2 °C 29.73in /  1006.7hPa Calm     93% 0.00in /  0mm 0 W/m2
05:29 72.3 °F /  22.4 °C 70.2 °F /  21.2 °C 29.73in /  1006.7hPa Calm     93% 0.00in /  0mm 0 W/m2
05:34 72.3 °F /  22.4 °C 70.2 °F /  21.2 °C 29.73in /  1006.7hPa Calm     93% 0.00in /  0mm 0 W/m2
05:39 72.3 °F /  22.4 °C 70.2 °F /  21.2 °C 29.72in /  1006.3hPa Calm     93% 0.00in /  0mm 0 W/m2
05:44 72.3 °F /  22.4 °C 70.2 °F /  21.2 °C 29.72in /  1006.3hPa Calm     93% 0.00in /  0mm 0 W/m2
05:49 72.3 °F /  22.4 °C 70.4 °F /  21.3 °C 29.72in /  1006.3hPa Calm     93.8% 0.00in /  0mm 0 W/m2
05:54 72.4 °F /  22.4 °C 70.6 °F /  21.4 °C 29.72in /  1006.3hPa Calm     94% 0.00in /  0mm 0 W/m2
05:59 72.4 °F /  22.4 °C 70.6 °F /  21.4 °C 29.72in /  1006.3hPa Calm     94% 0.00in /  0mm 0 W/m2
06:04 72.4 °F /  22.4 °C 70.6 °F /  21.4 °C 29.72in /  1006.3hPa Calm     94% 0.00in /  0mm 0 W/m2
06:09 72.4 °F /  22.4 °C 70.6 °F /  21.4 °C 29.73in /  1006.7hPa Calm     94% 0.00in /  0mm 0 W/m2
06:14 72.4 °F /  22.4 °C 70.6 °F /  21.4 °C 29.72in /  1006.3hPa Calm     94% 0.00in /  0mm 0 W/m2
06:19 72.4 °F /  22.4 °C 70.6 °F /  21.4 °C 29.73in /  1006.7hPa Calm     94% 0.00in /  0mm 0 W/m2
06:24 72.3 °F /  22.4 °C 70.5 °F /  21.4 °C 29.73in /  1006.7hPa Calm     94% 0.00in /  0mm 0 W/m2
06:29 72.3 °F /  22.4 °C 70.5 °F /  21.4 °C 29.73in /  1006.7hPa Calm     94% 0.00in /  0mm 0 W/m2
06:34 72.2 °F /  22.3 °C 70.4 °F /  21.3 °C 29.74in /  1007hPa Calm     94% 0.00in /  0mm 0 W/m2
06:39 72.2 °F /  22.3 °C 70.4 °F /  21.3 °C 29.74in /  1007hPa Calm     94% 0.00in /  0mm 7 W/m2
06:41 72.2 °F /  22.3 °C 70.4 °F /  21.3 °C 29.74in /  1007hPa Calm     94% 0.00in /  0mm 7 W/m2
07:00 72 °F /  22.2 °C 70.2 °F /  21.2 °C 29.75in /  1007.3hPa Calm     94% 0.00in /  0mm 11 W/m2
07:30 72.1 °F /  22.3 °C 70.3 °F /  21.3 °C 29.75in /  1007.3hPa Calm     94% 0.00in /  0mm 20 W/m2
08:04 72.4 °F /  22.4 °C 70.6 °F /  21.4 °C 29.76in /  1007.7hPa Calm     94% 0.00in /  0mm 14 W/m2
08:09 72.5 °F /  22.5 °C 70.7 °F /  21.5 °C 29.77in /  1008hPa Calm     94% 0.00in /  0mm 18 W/m2
08:14 72.6 °F /  22.6 °C 70.8 °F /  21.6 °C 29.77in /  1008hPa Calm     94% 0.00in /  0mm 28 W/m2
08:19 72.6 °F /  22.6 °C 70.8 °F /  21.6 °C 29.76in /  1007.7hPa Calm     94% 0.00in /  0mm 33 W/m2
08:24 72.6 °F /  22.6 °C 70.8 °F /  21.6 °C 29.75in /  1007.3hPa Calm     94% 0.01in /  0.25mm 32 W/m2
08:29 72.7 °F /  22.6 °C 70.8 °F /  21.6 °C 29.75in /  1007.3hPa Calm     94% 0.02in /  0.51mm 26 W/m2
08:34 72.7 °F /  22.6 °C 70.9 °F /  21.6 °C 29.75in /  1007.3hPa Calm     94% 0.02in /  0.51mm 35 W/m2
08:39 72.7 °F /  22.6 °C 70.9 °F /  21.6 °C 29.75in /  1007.3hPa Calm     94% 0.02in /  0.51mm 53 W/m2
08:44 72.7 °F /  22.6 °C 70.9 °F /  21.6 °C 29.75in /  1007.3hPa Calm     94% 0.02in /  0.51mm 54 W/m2
08:49 72.7 °F /  22.6 °C 70.9 °F /  21.6 °C 29.75in /  1007.3hPa Calm     94% 0.02in /  0.51mm 58 W/m2
08:54 72.6 °F /  22.6 °C 70.8 °F /  21.6 °C 29.75in /  1007.3hPa Calm     94% 0.02in /  0.51mm 77 W/m2
08:59 72.6 °F /  22.6 °C 70.7 °F /  21.5 °C 29.75in /  1007.3hPa Calm     94% 0.02in /  0.51mm 88 W/m2
09:04 72.5 °F /  22.5 °C 70.7 °F /  21.5 °C 29.74in /  1007hPa Calm     94% 0.02in /  0.51mm 118 W/m2
09:09 72.4 °F /  22.4 °C 70.6 °F /  21.4 °C 29.74in /  1007hPa Calm     94% 0.00in /  0mm 141 W/m2
09:14 72.5 °F /  22.5 °C 70.7 °F /  21.5 °C 29.74in /  1007hPa Calm     94% 0.00in /  0mm 104 W/m2
09:19 72.7 °F /  22.6 °C 70.9 °F /  21.6 °C 29.74in /  1007hPa Calm   1mph /  1.6km/h 94% 0.00in /  0mm 100 W/m2
09:24 72.7 °F /  22.6 °C 70.9 °F /  21.6 °C 29.74in /  1007hPa Calm   1mph /  1.6km/h 93.9% 0.00in /  0mm 72 W/m2
09:29 72.6 °F /  22.6 °C 70.5 °F /  21.4 °C 29.74in /  1007hPa Calm   1mph /  1.6km/h 93.2% 0.00in /  0mm 69 W/m2
09:34 72.5 °F /  22.5 °C 70.4 °F /  21.3 °C 29.74in /  1007hPa Calm   1mph /  1.6km/h 93.2% 0.00in /  0mm 74 W/m2
09:39 72.5 °F /  22.5 °C 70.6 °F /  21.4 °C 29.74in /  1007hPa Calm     93.7% 0.00in /  0mm 62 W/m2
09:44 72.3 °F /  22.4 °C 70.2 °F /  21.2 °C 29.75in /  1007.3hPa Calm     93% 0.00in /  0mm 79 W/m2
09:49 72.2 °F /  22.3 °C 70.1 °F /  21.2 °C 29.74in /  1007hPa Calm     93% 0.00in /  0mm 151 W/m2
09:54 72.1 °F /  22.3 °C 70.1 °F /  21.2 °C 29.75in /  1007.3hPa SSW 0.1mph /  0.2km/h 1mph /  1.6km/h 93.4% 0.00in /  0mm 148 W/m2
09:59 72.1 °F /  22.3 °C 70 °F /  21.1 °C 29.75in /  1007.3hPa SW 0.1mph /  0.2km/h 2mph /  3.2km/h 93.2% 0.00in /  0mm 95 W/m2
10:04 72 °F /  22.2 °C 69.9 °F /  21.1 °C 29.75in /  1007.3hPa Calm   2mph /  3.2km/h 93% 0.00in /  0mm 81 W/m2
10:09 71.9 °F /  22.2 °C 69.8 °F /  21 °C 29.75in /  1007.3hPa Calm   1mph /  1.6km/h 93% 0.00in /  0mm 104 W/m2
10:14 71.9 °F /  22.2 °C 69.8 °F /  21 °C 29.76in /  1007.7hPa Calm   1mph /  1.6km/h 93% 0.00in /  0mm 102 W/m2
10:19 71.9 °F /  22.2 °C 69.8 °F /  21 °C 29.76in /  1007.7hPa Calm   1mph /  1.6km/h 93% 0.00in /  0mm 84 W/m2
10:24 71.9 °F /  22.2 °C 69.5 °F /  20.8 °C 29.76in /  1007.7hPa Calm   1mph /  1.6km/h 92.4% 0.01in /  0.25mm 46 W/m2
10:29 71.8 °F /  22.1 °C 69.3 °F /  20.7 °C 29.76in /  1007.7hPa Calm   1mph /  1.6km/h 92% 0.02in /  0.51mm 44 W/m2
10:34 71.7 °F /  22.1 °C 69.3 °F /  20.7 °C 29.76in /  1007.7hPa Calm   1mph /  1.6km/h 92% 0.03in /  0.76mm 44 W/m2
10:39 71.6 °F /  22 °C 69.2 °F /  20.7 °C 29.76in /  1007.7hPa Calm     92% 0.03in /  0.76mm 46 W/m2
10:44 71.6 °F /  22 °C 69.4 °F /  20.8 °C 29.75in /  1007.3hPa Calm     92.9% 0.04in /  1.02mm 53 W/m2
10:49 71.6 °F /  22 °C 69.5 °F /  20.8 °C 29.75in /  1007.3hPa Calm     93% 0.04in /  1.02mm 67 W/m2
10:54 71.6 °F /  22 °C 69.5 °F /  20.8 °C 29.75in /  1007.3hPa Calm     93% 0.04in /  1.02mm 84 W/m2
10:59 71.7 °F /  22.1 °C 69.6 °F /  20.9 °C 29.75in /  1007.3hPa Calm     93% 0.04in /  1.02mm 90 W/m2
11:04 71.7 °F /  22.1 °C 69.6 °F /  20.9 °C 29.75in /  1007.3hPa Calm   1mph /  1.6km/h 93% 0.04in /  1.02mm 91 W/m2
11:09 71.7 °F /  22.1 °C 69.8 °F /  21 °C 29.75in /  1007.3hPa Calm   1mph /  1.6km/h 93.6% 0.04in /  1.02mm 97 W/m2
11:14 71.7 °F /  22.1 °C 69.8 °F /  21 °C 29.75in /  1007.3hPa Calm   1mph /  1.6km/h 93.8% 0.04in /  1.02mm 98 W/m2
11:19 71.7 °F /  22.1 °C 69.7 °F /  20.9 °C 29.75in /  1007.3hPa Calm   1mph /  1.6km/h 93.5% 0.04in /  1.02mm 98 W/m2
11:24 71.8 °F /  22.1 °C 70 °F /  21.1 °C 29.76in /  1007.7hPa Calm   1mph /  1.6km/h 94% 0.04in /  1.02mm 123 W/m2
11:29 71.9 °F /  22.2 °C 70.1 °F /  21.2 °C 29.76in /  1007.7hPa Calm   1mph /  1.6km/h 94% 0.05in /  1.27mm 125 W/m2
11:34 72.1 °F /  22.3 °C 70.3 °F /  21.3 °C 29.76in /  1007.7hPa Calm   1mph /  1.6km/h 94% 0.05in /  1.27mm 121 W/m2
11:39 72.3 °F /  22.4 °C 70.5 °F /  21.4 °C 29.76in /  1007.7hPa Calm     94% 0.04in /  1.02mm 72 W/m2
11:44 72.4 °F /  22.4 °C 70.6 °F /  21.4 °C 29.75in /  1007.3hPa Calm     94% 0.04in /  1.02mm 47 W/m2
11:49 72.4 °F /  22.4 °C 70.6 °F /  21.4 °C 29.75in /  1007.3hPa Calm     94% 0.06in /  1.52mm 32 W/m2
11:54 72.4 °F /  22.4 °C 70.6 °F /  21.4 °C 29.75in /  1007.3hPa Calm     94% 0.07in /  1.78mm 40 W/m2
11:59 72.4 °F /  22.4 °C 70.6 °F /  21.4 °C 29.75in /  1007.3hPa Calm     94% 0.07in /  1.78mm 37 W/m2
12:09 72.4 °F /  22.4 °C 70.6 °F /  21.4 °C 29.75in /  1007.3hPa Calm     94% 0.08in /  2.03mm 40 W/m2
12:14 72.4 °F /  22.4 °C 70.6 °F /  21.4 °C 29.75in /  1007.3hPa Calm     94% 0.08in /  2.03mm 49 W/m2
12:19 72.4 °F /  22.4 °C 70.6 °F /  21.4 °C 29.75in /  1007.3hPa Calm     94% 0.09in /  2.29mm 53 W/m2
12:24 72.4 °F /  22.4 °C 70.6 °F /  21.4 °C 29.75in /  1007.3hPa Calm     94% 0.09in /  2.29mm 56 W/m2
12:29 72.4 °F /  22.4 °C 70.6 °F /  21.4 °C 29.75in /  1007.3hPa Calm     94% 0.09in /  2.29mm 84 W/m2
12:34 72.4 °F /  22.4 °C 70.6 °F /  21.4 °C 29.74in /  1007hPa Calm     94% 0.09in /  2.29mm 105 W/m2
12:39 72.3 °F /  22.4 °C 70.5 °F /  21.4 °C 29.74in /  1007hPa Calm     94% 0.06in /  1.52mm 111 W/m2
12:44 72.4 °F /  22.4 °C 70.6 °F /  21.4 °C 29.74in /  1007hPa Calm     94% 0.06in /  1.52mm 113 W/m2
12:49 72.3 °F /  22.4 °C 70.5 °F /  21.4 °C 29.74in /  1007hPa Calm     94% 0.06in /  1.52mm 116 W/m2
12:54 72.3 °F /  22.4 °C 70.5 °F /  21.4 °C 29.74in /  1007hPa Calm     94% 0.07in /  1.78mm 123 W/m2
12:59 72.4 °F /  22.4 °C 70.6 °F /  21.4 °C 29.74in /  1007hPa Calm     94% 0.07in /  1.78mm 127 W/m2
13:04 72.5 °F /  22.5 °C 70.7 °F /  21.5 °C 29.74in /  1007hPa Calm     94% 0.07in /  1.78mm 141 W/m2
13:09 72.6 °F /  22.6 °C 70.8 °F /  21.6 °C 29.74in /  1007hPa Calm     94% 0.01in /  0.25mm 134 W/m2
13:14 72.8 °F /  22.7 °C 71 °F /  21.7 °C 29.73in /  1006.7hPa Calm     94% 0.01in /  0.25mm 113 W/m2
13:19 72.9 °F /  22.7 °C 71.1 °F /  21.7 °C 29.73in /  1006.7hPa Calm     94% 0.01in /  0.25mm 74 W/m2
13:24 72.8 °F /  22.7 °C 71 °F /  21.7 °C 29.73in /  1006.7hPa Calm     94% 0.01in /  0.25mm 70 W/m2
13:29 72.7 °F /  22.6 °C 70.7 °F /  21.5 °C 29.73in /  1006.7hPa Calm     93.3% 0.01in /  0.25mm 105 W/m2
13:34 72.7 °F /  22.6 °C 70.6 °F /  21.4 °C 29.74in /  1007hPa Calm     93% 0.01in /  0.25mm 137 W/m2
13:39 72.7 °F /  22.6 °C 70.6 °F /  21.4 °C 29.73in /  1006.7hPa Calm     93% 0.02in /  0.51mm 125 W/m2
13:44 72.7 °F /  22.6 °C 70.6 °F /  21.4 °C 29.74in /  1007hPa Calm     93% 0.02in /  0.51mm 91 W/m2
13:49 72.7 °F /  22.6 °C 70.7 °F /  21.5 °C 29.74in /  1007hPa Calm     93.1% 0.02in /  0.51mm 76 W/m2
13:54 72.9 °F /  22.7 °C 71.1 °F /  21.7 °C 29.74in /  1007hPa Calm     94% 0.03in /  0.76mm 63 W/m2
13:59 73 °F /  22.8 °C 71.2 °F /  21.8 °C 29.74in /  1007hPa Calm     94% 0.03in /  0.76mm 56 W/m2
14:04 73.1 °F /  22.8 °C 71.3 °F /  21.8 °C 29.73in /  1006.7hPa Calm     94% 0.03in /  0.76mm 58 W/m2
14:09 73.1 °F /  22.8 °C 71 °F /  21.7 °C 29.73in /  1006.7hPa Calm     93% 0.02in /  0.51mm 81 W/m2
14:14 73.2 °F /  22.9 °C 71 °F /  21.7 °C 29.73in /  1006.7hPa Calm     93% 0.02in /  0.51mm 142 W/m2
14:19 73.2 °F /  22.9 °C 71.1 °F /  21.7 °C 29.73in /  1006.7hPa Calm     93% 0.02in /  0.51mm 199 W/m2
14:24 73.3 °F /  22.9 °C 71.1 °F /  21.7 °C 29.73in /  1006.7hPa Calm     93% 0.02in /  0.51mm 199 W/m2
14:29 73.4 °F /  23 °C 71.2 °F /  21.8 °C 29.73in /  1006.7hPa Calm   2mph /  3.2km/h 93% 0.02in /  0.51mm 176 W/m2
14:34 73.2 °F /  22.9 °C 70.8 °F /  21.6 °C 29.73in /  1006.7hPa Calm   2mph /  3.2km/h 92.2% 0.02in /  0.51mm 176 W/m2
14:39 73.3 °F /  22.9 °C 70.9 °F /  21.6 °C 29.73in /  1006.7hPa Calm     92.3% 0.02in /  0.51mm 160 W/m2
14:44 73.3 °F /  22.9 °C 70.8 °F /  21.6 °C 29.73in /  1006.7hPa Calm     92% 0.02in /  0.51mm 155 W/m2
14:49 73.3 °F /  22.9 °C 70.8 °F /  21.6 °C 29.73in /  1006.7hPa Calm     92% 0.02in /  0.51mm 114 W/m2
14:54 73.5 °F /  23.1 °C 71 °F /  21.7 °C 29.72in /  1006.3hPa Calm     92% 0.02in /  0.51mm 98 W/m2
14:59 73.4 °F /  23 °C 71 °F /  21.7 °C 29.72in /  1006.3hPa Calm     92% 0.03in /  0.76mm 100 W/m2
15:04 73.4 °F /  23 °C 70.9 °F /  21.6 °C 29.73in /  1006.7hPa Calm     91.8% 0.03in /  0.76mm 105 W/m2
15:09 73.4 °F /  23 °C 70.9 °F /  21.6 °C 29.73in /  1006.7hPa Calm     92% 0.01in /  0.25mm 93 W/m2
15:14 73.4 °F /  23 °C 71 °F /  21.7 °C 29.72in /  1006.3hPa Calm     92% 0.01in /  0.25mm 93 W/m2
15:19 73.5 °F /  23.1 °C 71 °F /  21.7 °C 29.72in /  1006.3hPa Calm     92% 0.01in /  0.25mm 93 W/m2
15:24 73.5 °F /  23.1 °C 71 °F /  21.7 °C 29.72in /  1006.3hPa Calm     92% 0.01in /  0.25mm 88 W/m2
15:29 73.4 °F /  23 °C 70.8 °F /  21.6 °C 29.72in /  1006.3hPa Calm     91.8% 0.01in /  0.25mm 60 W/m2
15:34 73.3 °F /  22.9 °C 70.6 °F /  21.4 °C 29.72in /  1006.3hPa Calm     91.4% 0.01in /  0.25mm 39 W/m2
15:39 73.2 °F /  22.9 °C 70.7 °F /  21.5 °C 29.72in /  1006.3hPa Calm     91.8% 0.01in /  0.25mm 42 W/m2
15:44 73 °F /  22.8 °C 70.3 °F /  21.3 °C 29.71in /  1006hPa Calm     91% 0.01in /  0.25mm 47 W/m2
15:49 72.9 °F /  22.7 °C 70.2 °F /  21.2 °C 29.70in /  1005.6hPa Calm     91.3% 0.01in /  0.25mm 58 W/m2
15:54 72.7 °F /  22.6 °C 70 °F /  21.1 °C 29.70in /  1005.6hPa Calm     91.1% 0.01in /  0.25mm 62 W/m2
15:59 72.6 °F /  22.6 °C 70.1 °F /  21.2 °C 29.70in /  1005.6hPa Calm     91.8% 0.01in /  0.25mm 62 W/m2
16:00 72.6 °F /  22.6 °C 70.2 °F /  21.2 °C 29.70in /  1005.6hPa Calm     92% 0.01in /  0.25mm 60 W/m2
16:09 72.6 °F /  22.6 °C 70.2 °F /  21.2 °C 29.69in /  1005.3hPa Calm     92% 0.00in /  0mm 60 W/m2
16:14 72.5 °F /  22.5 °C 70.1 °F /  21.2 °C 29.70in /  1005.6hPa Calm     92% 0.00in /  0mm 39 W/m2
16:19 72.4 °F /  22.4 °C 69.7 °F /  20.9 °C 29.70in /  1005.6hPa Calm     91.4% 0.00in /  0mm 39 W/m2
16:24 72.1 °F /  22.3 °C 69.3 °F /  20.7 °C 29.70in /  1005.6hPa Calm     91% 0.00in /  0mm 33 W/m2
16:29 71.9 °F /  22.2 °C 69.1 °F /  20.6 °C 29.70in /  1005.6hPa Calm     91% 0.00in /  0mm 32 W/m2
16:34 71.7 °F /  22.1 °C 69 °F /  20.6 °C 29.70in /  1005.6hPa Calm     91% 0.00in /  0mm 32 W/m2
16:39 71.6 °F /  22 °C 68.8 °F /  20.4 °C 29.70in /  1005.6hPa Calm     91% 0.00in /  0mm 30 W/m2
16:44 71.5 °F /  21.9 °C 68.7 °F /  20.4 °C 29.70in /  1005.6hPa Calm     91% 0.00in /  0mm 26 W/m2
16:49 71.4 °F /  21.9 °C 68.6 °F /  20.3 °C 29.70in /  1005.6hPa Calm     91% 0.00in /  0mm 25 W/m2
16:54 71.3 °F /  21.8 °C 68.8 °F /  20.4 °C 29.69in /  1005.3hPa Calm     91.9% 0.01in /  0.25mm 25 W/m2
16:59 71.2 °F /  21.8 °C 68.7 °F /  20.4 °C 29.69in /  1005.3hPa Calm     92% 0.01in /  0.25mm 23 W/m2
17:04 71 °F /  21.7 °C 68.5 °F /  20.3 °C 29.70in /  1005.6hPa Calm     91.8% 0.02in /  0.51mm 19 W/m2
17:09 70.9 °F /  21.6 °C 68.4 °F /  20.2 °C 29.70in /  1005.6hPa Calm     92% 0.02in /  0.51mm 23 W/m2
17:14 70.8 °F /  21.6 °C 68.4 °F /  20.2 °C 29.71in /  1006hPa Calm     92% 0.02in /  0.51mm 25 W/m2
17:19 70.7 °F /  21.5 °C 68.4 °F /  20.2 °C 29.71in /  1006hPa Calm     92.5% 0.02in /  0.51mm 18 W/m2
17:24 70.5 °F /  21.4 °C 68.1 °F /  20.1 °C 29.71in /  1006hPa Calm     92% 0.03in /  0.76mm 19 W/m2
17:29 70.4 °F /  21.3 °C 67.9 °F /  19.9 °C 29.71in /  1006hPa Calm     92% 0.03in /  0.76mm 19 W/m2
17:34 70.3 °F /  21.3 °C 68.1 °F /  20.1 °C 29.71in /  1006hPa Calm     92.8% 0.03in /  0.76mm 19 W/m2
17:39 70.3 °F /  21.3 °C 68.2 °F /  20.1 °C 29.71in /  1006hPa Calm     93% 0.03in /  0.76mm 19 W/m2
17:44 70.2 °F /  21.2 °C 68.1 °F /  20.1 °C 29.71in /  1006hPa Calm     93% 0.03in /  0.76mm 18 W/m2
17:49 70.1 °F /  21.2 °C 68 °F /  20 °C 29.71in /  1006hPa Calm     93% 0.03in /  0.76mm 18 W/m2
17:54 70 °F /  21.1 °C 67.9 °F /  19.9 °C 29.70in /  1005.6hPa Calm     93% 0.03in /  0.76mm 16 W/m2
17:59 70 °F /  21.1 °C 67.8 °F /  19.9 °C 29.70in /  1005.6hPa Calm     93% 0.04in /  1.02mm 12 W/m2
18:04 69.9 °F /  21.1 °C 67.8 °F /  19.9 °C 29.70in /  1005.6hPa Calm     93% 0.04in /  1.02mm 11 W/m2
18:09 69.9 °F /  21.1 °C 67.7 °F /  19.8 °C 29.70in /  1005.6hPa Calm     93% 0.03in /  0.76mm 11 W/m2
18:14 69.8 °F /  21 °C 67.9 °F /  19.9 °C 29.70in /  1005.6hPa Calm     93.6% 0.03in /  0.76mm 11 W/m2
18:19 69.7 °F /  20.9 °C 67.8 °F /  19.9 °C 29.70in /  1005.6hPa Calm     93.8% 0.04in /  1.02mm 12 W/m2
18:24 69.7 °F /  20.9 °C 67.9 °F /  19.9 °C 29.70in /  1005.6hPa Calm     94% 0.04in /  1.02mm 12 W/m2
18:29 69.7 °F /  20.9 °C 67.9 °F /  19.9 °C 29.70in /  1005.6hPa Calm     94% 0.04in /  1.02mm 12 W/m2
18:34 69.7 °F /  20.9 °C 67.9 °F /  19.9 °C 29.70in /  1005.6hPa Calm     94% 0.04in /  1.02mm 7 W/m2
18:39 69.7 °F /  20.9 °C 67.9 °F /  19.9 °C 29.70in /  1005.6hPa Calm     94% 0.02in /  0.51mm 5 W/m2
18:44 69.7 °F /  20.9 °C 67.9 °F /  19.9 °C 29.70in /  1005.6hPa Calm     94% 0.02in /  0.51mm 0 W/m2
18:49 69.6 °F /  20.9 °C 67.8 °F /  19.9 °C 29.70in /  1005.6hPa Calm     94% 0.02in /  0.51mm 0 W/m2
18:54 69.6 °F /  20.9 °C 67.8 °F /  19.9 °C 29.70in /  1005.6hPa Calm     94% 0.02in /  0.51mm 0 W/m2
18:59 69.6 °F /  20.9 °C 67.8 °F /  19.9 °C 29.70in /  1005.6hPa Calm     94.1% 0.02in /  0.51mm 0 W/m2
19:04 69.6 °F /  20.9 °C 68.1 °F /  20.1 °C 29.69in /  1005.3hPa Calm     95% 0.02in /  0.51mm 0 W/m2
19:09 69.6 °F /  20.9 °C 68.1 °F /  20.1 °C 29.70in /  1005.6hPa Calm     95% 0.02in /  0.51mm 0 W/m2
19:14 69.6 °F /  20.9 °C 68.1 °F /  20.1 °C 29.70in /  1005.6hPa Calm     95% 0.02in /  0.51mm 0 W/m2
19:19 69.6 °F /  20.9 °C 68.1 °F /  20.1 °C 29.69in /  1005.3hPa Calm     95% 0.02in /  0.51mm 0 W/m2
19:24 69.6 °F /  20.9 °C 68.1 °F /  20.1 °C 29.69in /  1005.3hPa Calm     95% 0.02in /  0.51mm 0 W/m2
19:29 69.6 °F /  20.9 °C 68.1 °F /  20.1 °C 29.69in /  1005.3hPa Calm     95% 0.02in /  0.51mm 0 W/m2
19:34 69.6 °F /  20.9 °C 68.1 °F /  20.1 °C 29.69in /  1005.3hPa Calm     95% 0.02in /  0.51mm 0 W/m2
19:39 69.5 °F /  20.8 °C 68 °F /  20 °C 29.69in /  1005.3hPa Calm     95% 0.01in /  0.25mm 0 W/m2
19:44 69.5 °F /  20.8 °C 68 °F /  20 °C 29.69in /  1005.3hPa Calm     95% 0.01in /  0.25mm 0 W/m2
19:49 69.5 °F /  20.8 °C 68 °F /  20 °C 29.69in /  1005.3hPa Calm     95% 0.01in /  0.25mm 0 W/m2
19:54 69.5 °F /  20.8 °C 68 °F /  20 °C 29.69in /  1005.3hPa Calm     95% 0.01in /  0.25mm 0 W/m2
19:59 69.5 °F /  20.8 °C 68 °F /  20 °C 29.70in /  1005.6hPa Calm     95% 0.01in /  0.25mm 0 W/m2
20:00 69.5 °F /  20.8 °C 68 °F /  20 °C 29.70in /  1005.6hPa Calm     95% 0.01in /  0.25mm 0 W/m2
20:09 69.5 °F /  20.8 °C 68 °F /  20 °C 29.70in /  1005.6hPa Calm   1mph /  1.6km/h 95% 0.01in /  0.25mm 0 W/m2
20:14 69.5 °F /  20.8 °C 68 °F /  20 °C 29.69in /  1005.3hPa Calm   1mph /  1.6km/h 95% 0.02in /  0.51mm 0 W/m2
20:19 69.4 °F /  20.8 °C 67.9 °F /  19.9 °C 29.69in /  1005.3hPa Calm   1mph /  1.6km/h 95% 0.02in /  0.51mm 0 W/m2
20:23 69.4 °F /  20.8 °C 67.9 °F /  19.9 °C 29.69in /  1005.3hPa Calm   1mph /  1.6km/h 95% 0.02in /  0.51mm 0 W/m2
20:30 69.3 °F /  20.7 °C 67.8 °F /  19.9 °C 29.69in /  1005.3hPa Calm   1mph /  1.6km/h 95% 0.03in /  0.76mm 0 W/m2
21:00 68.4 °F /  20.2 °C 66.9 °F /  19.4 °C 29.70in /  1005.6hPa Calm   1mph /  1.6km/h 95% 0.02in /  0.51mm 0 W/m2
21:30 67.6 °F /  19.8 °C 66.1 °F /  18.9 °C 29.68in /  1005hPa Calm     95% 0.02in /  0.51mm 0 W/m2
22:00 67.2 °F /  19.6 °C 65.7 °F /  18.7 °C 29.70in /  1005.6hPa Calm     95% 0.00in /  0mm 0 W/m2
23:00 66.2 °F /  19 °C 64.7 °F /  18.2 °C 29.70in /  1005.6hPa Calm   3mph /  4.8km/h 95% 0.00in /  0mm 0 W/m2
23:30 66 °F /  18.9 °C 64.5 °F /  18.1 °C 29.70in /  1005.6hPa Calm     95% 0.00in /  0mm 0 W/m2
Hartford County Weather
Compliments of Weather Underground - 4 mb